Time;durP1;ratioP1;P1;durP2;ratioP2;P2;SDS_P1;SDS_P2;PMS_P1;PMS_P2;Temp;Humidity;BMP_temperature;BMP_pressure;BME280_temperature;BME280_humidity;BME280_pressure;Samples;Min_cycle;Max_cycle;Signal;HPM_P1;HPM_P2
2024/03/04 00:01:05;;;;;;;82.38;41.15;;;5.60;99.90;;;;;;5072683;28;20035;-68
2024/03/04 00:03:32;;;;;;;90.88;44.50;;;5.50;99.90;;;;;;5073065;28;20531;-67
2024/03/04 00:05:59;;;;;;;83.78;41.38;;;5.50;99.90;;;;;;5073129;28;20020;-68
2024/03/04 00:08:24;;;;;;;104.13;44.70;;;5.50;99.90;;;;;;5073052;28;20020;-68
2024/03/04 00:10:51;;;;;;;91.57;44.33;;;5.50;99.90;;;;;;5073144;28;20395;-67
2024/03/04 00:13:17;;;;;;;97.30;43.65;;;5.40;99.90;;;;;;5072805;28;20393;-67
2024/03/04 00:15:42;;;;;;;92.75;42.75;;;5.40;99.90;;;;;;5073010;28;20116;-67
2024/03/04 00:18:08;;;;;;;89.68;42.10;;;5.40;99.90;;;;;;5072880;28;20035;-67
2024/03/04 00:20:34;;;;;;;86.03;41.63;;;5.40;99.90;;;;;;5072977;28;20466;-68
2024/03/04 00:23:00;;;;;;;90.05;43.65;;;5.40;99.90;;;;;;5072520;28;20493;-68
2024/03/04 00:25:25;;;;;;;87.68;41.92;;;5.30;99.90;;;;;;5072833;28;20032;-68
2024/03/04 00:27:51;;;;;;;97.63;45.00;;;5.30;99.90;;;;;;5072903;28;20470;-67
2024/03/04 00:30:17;;;;;;;94.28;44.22;;;5.30;99.90;;;;;;5073560;28;20074;-67
2024/03/04 00:32:44;;;;;;;94.22;44.20;;;5.30;99.90;;;;;;5076451;28;20024;-67
2024/03/04 00:35:10;;;;;;;86.40;42.08;;;5.20;99.90;;;;;;5076633;28;20417;-68
2024/03/04 00:37:36;;;;;;;103.97;46.28;;;5.20;99.90;;;;;;5076479;28;20525;-68
2024/03/04 00:40:06;;;;;;;104.10;46.35;;;5.20;99.90;;;;;;5076262;28;20016;-67
2024/03/04 00:42:32;;;;;;;98.78;47.88;;;5.20;99.90;;;;;;5076374;28;20033;-67
2024/03/04 00:44:58;;;;;;;102.50;46.50;;;5.20;99.90;;;;;;5076334;28;20032;-67
2024/03/04 00:47:24;;;;;;;104.25;48.25;;;5.10;99.90;;;;;;5076323;28;20032;-67
2024/03/04 00:49:49;;;;;;;104.55;47.55;;;5.00;99.90;;;;;;5075857;28;20122;-67
2024/03/04 00:52:17;;;;;;;98.70;47.85;;;5.10;99.90;;;;;;5075716;28;20025;-67
2024/03/04 00:54:43;;;;;;;113.82;49.92;;;5.10;99.90;;;;;;5075778;28;20115;-68
2024/03/04 00:57:09;;;;;;;102.43;48.10;;;5.10;99.90;;;;;;5076231;28;20035;-67
2024/03/04 00:59:34;;;;;;;112.53;49.38;;;5.10;99.90;;;;;;5075884;28;20549;-68
2024/03/04 01:02:00;;;;;;;109.18;47.80;;;5.00;99.90;;;;;;5075920;28;20042;-68
2024/03/04 01:04:26;;;;;;;120.97;53.17;;;5.10;99.90;;;;;;5076034;28;20063;-67
2024/03/04 01:06:52;;;;;;;122.65;53.17;;;5.20;99.90;;;;;;5076045;28;20096;-67
2024/03/04 01:09:19;;;;;;;115.90;52.63;;;5.30;99.90;;;;;;5076086;28;20024;-67
2024/03/04 01:11:44;;;;;;;116.45;51.92;;;5.30;99.90;;;;;;5075836;28;20032;-67
2024/03/04 01:14:10;;;;;;;111.88;49.78;;;5.30;99.90;;;;;;5075347;28;20561;-67
2024/03/04 01:16:35;;;;;;;122.82;52.03;;;5.20;99.90;;;;;;5075852;28;20032;-67
2024/03/04 01:19:01;;;;;;;116.95;52.92;;;5.20;99.90;;;;;;5075788;28;20153;-67
2024/03/04 01:21:26;;;;;;;110.55;50.72;;;5.30;99.90;;;;;;5075786;28;20387;-67
2024/03/04 01:23:52;;;;;;;118.55;51.65;;;5.30;99.90;;;;;;5075578;28;20538;-67
2024/03/04 01:26:19;;;;;;;98.75;46.83;;;5.20;99.90;;;;;;5075246;28;20050;-67
2024/03/04 01:28:47;;;;;;;109.85;51.33;;;5.20;99.90;;;;;;5075609;28;20024;-67
2024/03/04 01:31:14;;;;;;;124.63;52.05;;;5.20;99.90;;;;;;5075294;28;20040;-67
2024/03/04 01:33:41;;;;;;;125.85;54.88;;;5.20;99.90;;;;;;5075107;28;20538;-67
2024/03/04 01:36:07;;;;;;;128.63;54.05;;;5.20;99.90;;;;;;5074953;28;20021;-67
2024/03/04 01:38:32;;;;;;;132.05;55.83;;;5.30;99.90;;;;;;5075442;28;20038;-67
2024/03/04 01:40:58;;;;;;;129.00;55.83;;;5.30;99.90;;;;;;5074963;28;20055;-67
2024/03/04 01:43:24;;;;;;;136.70;57.60;;;5.40;99.90;;;;;;5075341;28;20031;-67
2024/03/04 01:45:49;;;;;;;137.10;58.80;;;5.50;99.90;;;;;;5075369;28;20082;-67
2024/03/04 01:48:15;;;;;;;144.02;58.47;;;5.50;99.90;;;;;;5074927;28;20474;-67
2024/03/04 01:50:44;;;;;;;144.52;59.45;;;5.50;99.90;;;;;;5075203;28;20032;-67
2024/03/04 01:53:11;;;;;;;147.18;60.38;;;5.60;99.90;;;;;;5074838;28;20509;-67
2024/03/04 01:55:42;;;;;;;143.18;59.15;;;5.60;99.90;;;;;;5075110;28;20021;-67
2024/03/04 01:58:11;;;;;;;152.63;60.75;;;5.60;99.90;;;;;;5075016;28;20465;-67
2024/03/04 02:00:40;;;;;;;152.02;60.85;;;5.70;99.90;;;;;;5075003;28;20017;-67
2024/03/04 02:03:07;;;;;;;156.90;64.30;;;5.70;99.90;;;;;;5074479;28;20029;-67
2024/03/04 02:05:34;;;;;;;149.02;61.85;;;5.70;99.90;;;;;;5074860;28;20028;-68
2024/03/04 02:08:00;;;;;;;153.95;61.83;;;5.70;99.90;;;;;;5074879;28;20069;-67
2024/03/04 02:10:26;;;;;;;150.40;61.15;;;5.70;99.90;;;;;;5074772;28;20108;-67
2024/03/04 02:12:53;;;;;;;155.35;62.25;;;5.60;99.90;;;;;;5074560;28;20029;-67
2024/03/04 02:15:18;;;;;;;143.10;58.92;;;5.60;99.90;;;;;;5074793;28;20023;-67
2024/03/04 02:17:45;;;;;;;151.57;62.20;;;5.50;99.90;;;;;;5074191;28;20024;-67
2024/03/04 02:20:14;;;;;;;151.80;61.97;;;5.40;99.90;;;;;;5074467;28;20020;-67
2024/03/04 02:22:40;;;;;;;153.50;62.00;;;5.50;99.90;;;;;;5074129;28;20035;-67
2024/03/04 02:25:06;;;;;;;157.20;63.40;;;5.60;99.90;;;;;;5074466;28;20025;-67
2024/03/04 02:27:34;;;;;;;146.88;60.63;;;5.60;99.90;;;;;;5074397;28;20025;-67
2024/03/04 02:29:59;;;;;;;151.43;63.65;;;5.50;99.90;;;;;;5074180;28;20027;-67
2024/03/04 02:32:25;;;;;;;160.80;61.45;;;5.60;99.90;;;;;;5074301;28;20478;-67
2024/03/04 02:34:52;;;;;;;143.57;58.38;;;5.60;99.90;;;;;;5074002;28;20023;-67
2024/03/04 02:37:17;;;;;;;157.50;62.70;;;5.50;99.90;;;;;;5074284;28;20107;-67
2024/03/04 02:39:43;;;;;;;168.35;65.25;;;5.40;99.90;;;;;;5074095;28;20461;-67
2024/03/04 02:42:09;;;;;;;161.15;64.00;;;5.40;99.90;;;;;;5074084;28;20093;-67
2024/03/04 02:44:34;;;;;;;151.73;63.58;;;5.50;99.90;;;;;;5074009;28;20390;-67
2024/03/04 02:47:00;;;;;;;160.25;64.55;;;5.50;99.90;;;;;;5074102;28;20394;-67
2024/03/04 02:49:26;;;;;;;156.70;61.88;;;5.50;99.90;;;;;;5074105;28;20036;-67
2024/03/04 02:51:52;;;;;;;139.35;59.88;;;5.40;99.90;;;;;;5073946;28;20032;-66
2024/03/04 02:54:19;;;;;;;164.05;64.65;;;5.30;99.90;;;;;;5073082;28;20383;-67
2024/03/04 02:56:44;;;;;;;174.35;66.40;;;5.40;99.90;;;;;;5073424;28;20123;-67
2024/03/04 02:59:10;;;;;;;160.88;65.32;;;5.50;99.90;;;;;;5073813;28;20067;-67
2024/03/04 03:01:36;;;;;;;153.05;62.55;;;5.40;99.90;;;;;;5073420;28;20410;-67
2024/03/04 03:04:01;;;;;;;176.90;66.63;;;5.40;99.90;;;;;;5073828;28;20033;-67
2024/03/04 03:06:28;;;;;;;166.80;66.68;;;5.50;99.90;;;;;;5073726;28;20025;-67
2024/03/04 03:08:55;;;;;;;180.82;65.25;;;5.40;99.90;;;;;;5073719;28;20517;-67
2024/03/04 03:11:20;;;;;;;159.48;65.25;;;5.50;99.90;;;;;;5073708;28;20036;-67
2024/03/04 03:13:46;;;;;;;171.52;65.65;;;5.50;99.90;;;;;;5073107;28;20119;-67
2024/03/04 03:16:20;;;;;;;177.23;66.68;;;5.60;99.90;;;;;;5073502;28;20037;-67
2024/03/04 03:18:45;;;;;;;170.00;65.80;;;5.70;99.90;;;;;;5073518;28;20363;-67
2024/03/04 03:21:12;;;;;;;168.48;66.10;;;5.80;99.90;;;;;;5073598;28;20074;-67
2024/03/04 03:23:40;;;;;;;163.52;62.78;;;5.80;99.90;;;;;;5073067;28;20025;-67
2024/03/04 03:26:06;;;;;;;162.60;61.58;;;5.70;99.90;;;;;;5073031;28;20028;-67
2024/03/04 03:28:32;;;;;;;156.05;61.47;;;5.90;99.90;;;;;;5073482;28;20497;-66
2024/03/04 03:30:57;;;;;;;164.18;61.88;;;6.00;99.90;;;;;;5073158;28;20057;-66
2024/03/04 03:33:23;;;;;;;161.70;62.25;;;6.10;99.90;;;;;;5073326;28;20067;-67
2024/03/04 03:35:48;;;;;;;155.00;59.38;;;6.10;99.90;;;;;;5073507;28;20024;-67
2024/03/04 03:38:14;;;;;;;153.18;60.17;;;6.10;99.90;;;;;;5073303;28;20024;-67
2024/03/04 03:40:39;;;;;;;157.05;60.28;;;6.20;99.90;;;;;;5073341;28;20051;-67
2024/03/04 03:43:05;;;;;;;152.50;59.38;;;6.30;99.90;;;;;;5073312;28;20036;-68
2024/03/04 03:45:32;;;;;;;163.35;60.97;;;6.30;99.90;;;;;;5073391;28;20087;-68
2024/03/04 03:47:57;;;;;;;155.30;59.40;;;6.40;99.90;;;;;;5072849;28;20047;-67
2024/03/04 03:50:23;;;;;;;155.63;60.15;;;6.50;99.90;;;;;;5072888;28;20032;-67
2024/03/04 03:52:48;;;;;;;158.57;61.40;;;6.60;99.90;;;;;;5073106;28;20398;-67
2024/03/04 03:55:14;;;;;;;159.18;62.28;;;6.60;99.90;;;;;;5073065;28;20115;-68
2024/03/04 03:57:41;;;;;;;157.93;61.13;;;6.70;99.90;;;;;;5073035;28;20031;-67
2024/03/04 04:00:10;;;;;;;166.80;64.07;;;6.70;99.90;;;;;;5073183;28;20024;-67
2024/03/04 04:02:36;;;;;;;158.15;65.00;;;6.80;99.90;;;;;;5073080;28;20056;-67
2024/03/04 04:05:02;;;;;;;170.70;65.00;;;6.80;99.90;;;;;;5075169;28;20064;-67
2024/03/04 04:07:28;;;;;;;170.85;65.32;;;6.80;99.90;;;;;;5077169;28;20386;-67
2024/03/04 04:09:53;;;;;;;178.45;66.15;;;6.80;99.90;;;;;;5077190;28;20040;-67
2024/03/04 04:12:19;;;;;;;169.50;63.88;;;6.80;99.90;;;;;;5076977;28;20021;-67
2024/03/04 04:14:45;;;;;;;173.65;67.47;;;6.80;99.90;;;;;;5076926;28;20075;-68
2024/03/04 04:17:12;;;;;;;170.57;65.70;;;6.90;99.90;;;;;;5076945;28;20107;-67
2024/03/04 04:19:38;;;;;;;169.05;66.05;;;6.90;99.90;;;;;;5076953;28;20050;-67
2024/03/04 04:22:04;;;;;;;182.15;66.65;;;6.90;99.90;;;;;;5076798;28;20033;-67
2024/03/04 04:24:30;;;;;;;184.85;69.18;;;6.90;99.90;;;;;;5076892;28;20059;-68
2024/03/04 04:26:56;;;;;;;185.98;67.43;;;6.90;99.90;;;;;;5076394;28;20031;-67
2024/03/04 04:29:21;;;;;;;175.02;65.93;;;6.90;99.90;;;;;;5076431;28;20538;-67
2024/03/04 04:31:47;;;;;;;187.15;68.65;;;7.00;99.90;;;;;;5075987;28;20049;-67
2024/03/04 04:34:12;;;;;;;189.75;68.57;;;7.00;99.90;;;;;;5076661;28;20131;-67
2024/03/04 04:36:38;;;;;;;180.70;67.05;;;7.00;99.90;;;;;;5076592;28;20064;-67
2024/03/04 04:39:03;;;;;;;182.23;68.53;;;6.60;99.90;;;;;;5076592;28;20063;-67
2024/03/04 04:41:30;;;;;;;181.30;68.13;;;6.60;99.90;;;;;;5076123;28;20024;-67
2024/03/04 04:43:55;;;;;;;178.75;70.47;;;7.10;99.90;;;;;;5076377;28;20055;-67
2024/03/04 04:46:21;;;;;;;190.65;70.80;;;7.10;99.90;;;;;;5076401;28;20064;-68
2024/03/04 04:48:46;;;;;;;188.10;70.00;;;7.10;99.90;;;;;;5076178;28;20025;-68
2024/03/04 04:51:12;;;;;;;197.93;70.93;;;7.10;99.90;;;;;;5075869;28;20024;-68
2024/03/04 04:53:37;;;;;;;180.10;67.22;;;7.10;99.90;;;;;;5075997;28;20086;-68
2024/03/04 04:56:03;;;;;;;199.52;73.25;;;7.10;99.90;;;;;;5076137;28;20478;-67
2024/03/04 04:58:29;;;;;;;189.57;71.25;;;7.10;99.90;;;;;;5076097;28;20029;-67
2024/03/04 05:00:56;;;;;;;189.73;73.18;;;7.10;99.90;;;;;;5076160;28;20017;-68
2024/03/04 05:03:22;;;;;;;204.13;77.22;;;7.10;99.90;;;;;;5076153;28;20115;-67
2024/03/04 05:05:47;;;;;;;190.88;70.63;;;7.10;99.90;;;;;;5075990;28;20060;-68
2024/03/04 05:08:13;;;;;;;189.55;72.20;;;7.20;99.90;;;;;;5075849;28;20029;-67
2024/03/04 05:10:39;;;;;;;209.98;72.85;;;7.20;99.90;;;;;;5075552;28;20028;-68
2024/03/04 05:13:05;;;;;;;208.88;73.57;;;7.20;99.90;;;;;;5075739;28;20520;-67
2024/03/04 05:15:31;;;;;;;197.40;70.93;;;7.20;99.90;;;;;;5075136;28;20020;-68
2024/03/04 05:17:57;;;;;;;209.50;71.88;;;7.20;99.90;;;;;;5075445;28;20120;-68
2024/03/04 05:20:23;;;;;;;203.30;71.25;;;7.20;99.90;;;;;;5075822;28;20032;-67
2024/03/04 05:22:48;;;;;;;208.23;72.20;;;7.30;99.90;;;;;;5075649;28;20032;-67
2024/03/04 05:25:14;;;;;;;219.95;73.97;;;7.30;99.90;;;;;;5075688;28;20470;-67
2024/03/04 05:27:39;;;;;;;208.68;74.03;;;7.20;99.90;;;;;;5075720;28;20032;-68
2024/03/04 05:30:06;;;;;;;218.32;76.68;;;7.30;99.90;;;;;;5075530;28;20040;-67
2024/03/04 05:32:31;;;;;;;209.32;76.10;;;7.30;99.90;;;;;;5074916;28;20044;-68
2024/03/04 05:34:57;;;;;;;210.23;71.35;;;7.30;99.90;;;;;;5075616;28;20491;-67
2024/03/04 05:37:22;;;;;;;216.13;75.22;;;7.40;99.90;;;;;;5075490;28;20497;-67
2024/03/04 05:39:48;;;;;;;205.30;72.15;;;7.40;99.90;;;;;;5075442;28;20480;-67
2024/03/04 05:42:14;;;;;;;199.48;73.07;;;7.40;99.90;;;;;;5074916;28;20394;-67
2024/03/04 05:44:39;;;;;;;206.10;72.20;;;7.40;99.90;;;;;;5074930;28;20082;-67
2024/03/04 05:47:05;;;;;;;217.63;73.75;;;7.40;99.90;;;;;;5075356;28;20402;-67
2024/03/04 05:49:31;;;;;;;204.95;70.00;;;7.40;99.90;;;;;;5074866;28;20024;-67
2024/03/04 05:51:58;;;;;;;203.05;71.40;;;7.40;99.90;;;;;;5074708;28;20124;-67
2024/03/04 05:54:25;;;;;;;207.30;72.93;;;7.40;99.90;;;;;;5074841;28;20466;-67
2024/03/04 05:56:51;;;;;;;215.73;74.20;;;7.40;99.90;;;;;;5075069;28;20016;-67
2024/03/04 05:59:16;;;;;;;227.10;73.82;;;7.40;99.90;;;;;;5074508;28;20173;-67
2024/03/04 06:01:42;;;;;;;201.40;73.22;;;7.40;99.90;;;;;;5074765;28;20071;-67
2024/03/04 06:04:08;;;;;;;201.35;75.78;;;7.50;99.90;;;;;;5075212;28;20048;-67
2024/03/04 06:06:34;;;;;;;238.18;89.68;;;7.50;99.90;;;;;;5074814;28;20032;-67
2024/03/04 06:09:03;;;;;;;225.27;80.13;;;7.50;99.90;;;;;;5074878;28;20039;-67
2024/03/04 06:11:29;;;;;;;235.38;79.63;;;7.50;99.90;;;;;;5074750;28;20029;-67
2024/03/04 06:13:54;;;;;;;227.85;81.28;;;7.50;99.90;;;;;;5074405;28;20111;-67
2024/03/04 06:16:20;;;;;;;224.23;73.15;;;7.50;99.90;;;;;;5074583;28;20059;-67
2024/03/04 06:18:47;;;;;;;255.52;93.68;;;7.50;99.90;;;;;;5074527;28;20119;-67
2024/03/04 06:21:13;;;;;;;268.77;101.65;;;7.50;99.90;;;;;;5074582;28;20489;-67
2024/03/04 06:23:38;;;;;;;232.00;77.93;;;7.50;99.90;;;;;;5074438;28;20033;-66
2024/03/04 06:26:09;;;;;;;226.50;74.63;;;7.60;99.90;;;;;;5074372;28;20028;-66
2024/03/04 06:28:35;;;;;;;229.65;77.45;;;7.60;99.90;;;;;;5073986;28;20033;-67
2024/03/04 06:31:01;;;;;;;223.27;72.72;;;7.60;99.90;;;;;;5074241;28;20036;-67
2024/03/04 06:33:26;;;;;;;240.07;88.40;;;7.60;99.90;;;;;;5074112;28;20032;-67
2024/03/04 06:35:52;;;;;;;240.75;86.10;;;7.60;99.90;;;;;;5073730;28;20063;-67
2024/03/04 06:38:17;;;;;;;223.50;74.95;;;7.60;99.90;;;;;;5074174;28;20109;-67
2024/03/04 06:40:43;;;;;;;229.15;71.70;;;7.60;99.90;;;;;;5073624;28;20027;-67
2024/03/04 06:43:09;;;;;;;239.27;76.40;;;7.70;99.90;;;;;;5074108;28;20089;-67
2024/03/04 06:45:36;;;;;;;223.13;74.85;;;7.70;99.90;;;;;;5073698;28;20119;-67
2024/03/04 06:48:03;;;;;;;222.55;73.85;;;7.60;99.90;;;;;;5073977;28;20024;-66
2024/03/04 06:50:29;;;;;;;228.50;70.80;;;7.70;99.90;;;;;;5073910;28;20025;-66
2024/03/04 06:52:56;;;;;;;221.68;70.88;;;7.70;99.90;;;;;;5073713;28;20079;-66
2024/03/04 06:55:21;;;;;;;224.73;72.35;;;7.70;99.90;;;;;;5074042;28;20641;-67
2024/03/04 06:57:47;;;;;;;220.68;67.53;;;7.70;99.90;;;;;;5073803;28;20111;-66
2024/03/04 07:00:13;;;;;;;212.85;68.00;;;7.70;99.90;;;;;;5073801;28;20363;-67
2024/03/04 07:02:39;;;;;;;212.45;68.00;;;7.70;99.90;;;;;;5072523;28;20033;-67
2024/03/04 07:05:05;;;;;;;226.07;69.47;;;7.70;99.90;;;;;;5072885;28;20047;-67
2024/03/04 07:07:30;;;;;;;214.57;66.60;;;7.70;99.90;;;;;;5073853;28;20035;-66
2024/03/04 07:09:56;;;;;;;224.70;68.88;;;7.70;99.90;;;;;;5073393;28;20078;-66
2024/03/04 07:12:21;;;;;;;219.23;69.05;;;7.80;99.90;;;;;;5073358;28;20020;-69
2024/03/04 07:14:47;;;;;;;220.05;67.53;;;7.70;99.90;;;;;;5073192;28;20108;-67
2024/03/04 07:17:12;;;;;;;216.07;67.65;;;7.70;99.90;;;;;;5072651;28;20028;-67
2024/03/04 07:19:38;;;;;;;209.20;64.00;;;7.80;99.90;;;;;;5072251;28;20025;-67
2024/03/04 07:22:04;;;;;;;214.27;65.95;;;7.80;99.90;;;;;;5073023;28;20035;-67
2024/03/04 07:24:29;;;;;;;204.35;63.53;;;7.80;99.90;;;;;;5073460;28;20380;-67
2024/03/04 07:26:55;;;;;;;218.82;66.55;;;7.80;99.90;;;;;;5073443;28;20494;-67
2024/03/04 07:29:20;;;;;;;202.80;65.78;;;7.80;99.90;;;;;;5073481;28;20425;-66
2024/03/04 07:31:47;;;;;;;211.52;67.25;;;7.80;99.90;;;;;;5072811;28;20048;-66
2024/03/04 07:34:12;;;;;;;214.98;63.63;;;7.70;99.90;;;;;;5071928;28;20386;-66
2024/03/04 07:36:38;;;;;;;210.73;61.70;;;7.80;99.90;;;;;;5072586;28;20028;-67
2024/03/04 07:39:04;;;;;;;203.98;63.08;;;7.80;99.90;;;;;;5072184;28;20090;-66
2024/03/04 07:41:29;;;;;;;213.52;62.78;;;7.80;99.90;;;;;;5072499;28;20024;-67
2024/03/04 07:43:56;;;;;;;195.32;61.75;;;7.80;99.90;;;;;;5073231;28;20064;-66
2024/03/04 07:46:21;;;;;;;203.98;62.22;;;7.80;99.90;;;;;;5073007;28;20071;-66
2024/03/04 07:48:47;;;;;;;205.27;63.45;;;7.80;99.90;;;;;;5069246;28;20439;-67
2024/03/04 07:51:12;;;;;;;187.75;60.22;;;7.80;99.90;;;;;;5059422;28;20039;-67
2024/03/04 07:53:38;;;;;;;192.23;59.75;;;7.90;99.90;;;;;;5072044;28;20032;-67
2024/03/04 07:56:04;;;;;;;194.30;60.13;;;7.90;99.90;;;;;;5072817;28;20025;-67
2024/03/04 07:58:29;;;;;;;201.02;63.92;;;7.90;99.90;;;;;;5072661;28;20029;-68
2024/03/04 08:00:55;;;;;;;177.02;56.47;;;7.90;99.90;;;;;;5063004;28;20378;-66
2024/03/04 08:03:21;;;;;;;181.88;58.15;;;7.90;99.90;;;;;;5072575;28;20513;-67
2024/03/04 08:05:48;;;;;;;181.70;59.53;;;7.90;99.90;;;;;;5072534;28;20066;-67
2024/03/04 08:08:14;;;;;;;185.02;57.00;;;7.90;99.90;;;;;;5072748;28;20074;-67
2024/03/04 08:10:39;;;;;;;178.98;58.33;;;7.90;99.90;;;;;;5071649;28;20114;-68
2024/03/04 08:13:05;;;;;;;179.90;59.78;;;7.90;99.90;;;;;;5072433;28;20024;-67
2024/03/04 08:15:30;;;;;;;178.98;57.13;;;7.80;99.90;;;;;;5072965;28;20029;-67
2024/03/04 08:17:56;;;;;;;179.15;57.15;;;7.80;99.90;;;;;;5072189;28;20398;-67
2024/03/04 08:20:22;;;;;;;168.35;55.08;;;7.80;99.90;;;;;;5070928;28;20147;-68
2024/03/04 08:22:49;;;;;;;177.80;57.55;;;7.80;99.90;;;;;;5071882;28;20044;-67
2024/03/04 08:25:16;;;;;;;181.63;56.28;;;7.80;99.90;;;;;;5072252;28;20131;-67
2024/03/04 08:27:42;;;;;;;179.40;56.95;;;7.80;99.90;;;;;;5077838;28;20036;-67
2024/03/04 08:30:09;;;;;;;170.13;54.95;;;7.90;99.90;;;;;;5072263;28;20024;-67
2024/03/04 08:32:35;;;;;;;176.85;56.58;;;7.80;99.90;;;;;;5072215;28;20053;-67
2024/03/04 08:35:00;;;;;;;177.68;55.42;;;7.80;99.90;;;;;;5074069;28;20036;-67
2024/03/04 08:37:27;;;;;;;181.02;55.10;;;7.90;99.90;;;;;;5071857;28;20035;-67
2024/03/04 08:39:54;;;;;;;153.55;54.08;;;7.80;99.90;;;;;;5075799;28;20021;-67
2024/03/04 08:42:20;;;;;;;152.27;52.53;;;7.90;99.90;;;;;;5072839;28;20028;-67
2024/03/04 08:44:45;;;;;;;166.48;53.83;;;7.90;99.90;;;;;;5072074;28;20376;-67
2024/03/04 08:47:11;;;;;;;170.07;53.20;;;7.90;99.90;;;;;;5072768;28;20036;-67
2024/03/04 08:49:36;;;;;;;143.13;50.03;;;7.90;99.90;;;;;;5074501;28;20032;-68
2024/03/04 08:52:02;;;;;;;156.70;52.28;;;7.90;99.90;;;;;;5073401;28;20052;-67
2024/03/04 08:54:31;;;;;;;153.18;50.15;;;7.90;99.90;;;;;;5075560;28;20024;-67
2024/03/04 08:56:56;;;;;;;156.07;50.75;;;7.90;99.90;;;;;;5076720;28;20107;-68
2024/03/04 08:59:22;;;;;;;161.48;50.85;;;7.90;99.90;;;;;;5071077;28;20158;-67
2024/03/04 09:01:48;;;;;;;155.55;51.47;;;7.90;99.90;;;;;;5074206;28;20020;-67
2024/03/04 09:04:13;;;;;;;142.88;48.63;;;8.00;99.90;;;;;;5074960;28;20032;-67
2024/03/04 09:06:39;;;;;;;144.15;50.70;;;8.00;99.90;;;;;;5075597;28;20029;-67
2024/03/04 09:09:04;;;;;;;152.40;52.03;;;8.00;99.90;;;;;;5076064;28;20047;-68
2024/03/04 09:11:30;;;;;;;141.32;51.53;;;8.00;99.90;;;;;;5061243;28;20028;-67
2024/03/04 09:13:55;;;;;;;144.82;49.47;;;8.00;99.90;;;;;;5086885;28;20033;-68
2024/03/04 09:16:21;;;;;;;135.23;48.60;;;8.00;99.90;;;;;;5075105;28;20475;-68
2024/03/04 09:18:46;;;;;;;141.68;47.78;;;8.00;99.90;;;;;;5072180;28;20086;-68
2024/03/04 09:21:13;;;;;;;139.02;48.70;;;8.10;99.90;;;;;;5074566;28;20393;-67
2024/03/04 09:23:39;;;;;;;137.35;47.50;;;8.10;99.90;;;;;;5075091;28;20029;-67
2024/03/04 09:26:08;;;;;;;127.68;46.33;;;8.10;99.90;;;;;;5063095;28;20052;-67
2024/03/04 09:28:34;;;;;;;121.72;45.53;;;8.10;99.90;;;;;;5073073;28;20096;-67
2024/03/04 09:31:00;;;;;;;124.38;45.55;;;8.10;99.90;;;;;;5072372;28;20044;-67
2024/03/04 09:33:25;;;;;;;125.53;46.70;;;8.10;99.90;;;;;;5073540;28;20032;-67
2024/03/04 09:35:51;;;;;;;112.10;44.70;;;8.20;99.90;;;;;;5071829;28;20413;-67
2024/03/04 09:38:17;;;;;;;125.82;45.63;;;8.20;99.90;;;;;;5074136;28;20021;-67
2024/03/04 09:40:45;;;;;;;121.53;44.03;;;8.20;99.90;;;;;;5073030;28;20118;-67
2024/03/04 09:43:12;;;;;;;112.97;43.42;;;8.30;99.90;;;;;;5071113;28;20501;-67
2024/03/04 09:45:39;;;;;;;127.18;44.67;;;8.30;99.90;;;;;;5062473;28;20524;-67
2024/03/04 09:48:08;;;;;;;112.97;42.67;;;8.30;99.90;;;;;;5071260;28;20371;-68
2024/03/04 09:50:35;;;;;;;113.10;42.90;;;8.30;99.90;;;;;;5069177;28;20035;-67
2024/03/04 09:53:02;;;;;;;109.78;41.33;;;8.30;99.90;;;;;;5073927;28;20033;-68
2024/03/04 09:55:27;;;;;;;98.22;39.90;;;8.40;99.90;;;;;;5074392;28;20067;-68
2024/03/04 09:57:54;;;;;;;110.05;41.50;;;8.40;99.90;;;;;;5073176;28;20028;-67
2024/03/04 10:00:21;;;;;;;104.85;41.17;;;8.40;99.90;;;;;;5072670;28;20024;-66
2024/03/04 10:02:47;;;;;;;102.88;38.65;;;8.50;99.90;;;;;;5077714;28;20032;-67
2024/03/04 10:05:14;;;;;;;97.63;40.20;;;8.50;99.90;;;;;;5073367;28;20047;-68
2024/03/04 10:07:40;;;;;;;94.88;37.00;;;8.50;99.90;;;;;;5072746;28;20401;-69
2024/03/04 10:10:10;;;;;;;102.85;39.45;;;8.50;99.90;;;;;;5073963;28;20024;-68
2024/03/04 10:12:36;;;;;;;95.07;37.53;;;8.50;99.90;;;;;;5073255;28;20025;-68
2024/03/04 10:15:06;;;;;;;98.57;38.78;;;8.40;99.90;;;;;;5071290;28;20032;-67
2024/03/04 10:17:33;;;;;;;89.75;38.17;;;8.50;99.90;;;;;;5073980;28;20032;-68
2024/03/04 10:20:00;;;;;;;93.50;37.65;;;8.50;99.90;;;;;;5070535;28;20033;-68
2024/03/04 10:22:35;;;;;;;98.72;37.97;;;8.40;99.90;;;;;;5065102;28;20028;-67
2024/03/04 10:25:07;;;;;;;97.25;38.05;;;8.50;99.90;;;;;;5064349;28;20024;-67
2024/03/04 10:27:34;;;;;;;90.70;35.72;;;8.50;99.90;;;;;;5071945;28;20032;-67
2024/03/04 10:30:18;;;;;;;84.20;36.00;;;8.50;99.90;;;;;;5060203;28;20047;-67
2024/03/04 10:35:26;;;;;;;80.93;34.13;;;8.70;99.90;;;;;;5103444;27;20409;-66
2024/03/04 10:37:52;;;;;;;85.93;36.10;;;8.70;99.90;;;;;;5085499;28;21119;-66
2024/03/04 10:40:19;;;;;;;83.57;36.05;;;8.90;99.90;;;;;;5089474;28;20485;-66
2024/03/04 10:42:45;;;;;;;81.20;34.22;;;9.00;99.90;;;;;;5088246;28;20082;-66
2024/03/04 10:45:12;;;;;;;74.82;32.17;;;9.00;99.90;;;;;;5087444;28;20073;-66
2024/03/04 10:47:41;;;;;;;75.40;32.03;;;9.00;99.90;;;;;;5089577;28;20044;-66
2024/03/04 10:50:08;;;;;;;72.45;32.03;;;9.10;99.90;;;;;;5090180;28;20052;-67
2024/03/04 10:52:34;;;;;;;68.63;32.40;;;9.00;99.90;;;;;;5089076;28;20035;-68
2024/03/04 10:55:03;;;;;;;73.47;33.33;;;9.00;99.90;;;;;;5090852;28;20474;-68
2024/03/04 10:57:31;;;;;;;86.70;34.95;;;8.90;99.90;;;;;;5092333;28;20032;-68
2024/03/04 11:00:10;;;;;;;78.53;33.75;;;8.80;99.90;;;;;;5083063;28;20039;-67
2024/03/04 11:03:02;;;;;;;87.85;36.67;;;8.70;99.90;;;;;;5085125;28;20475;-68
2024/03/04 11:05:32;;;;;;;85.90;34.88;;;8.60;99.90;;;;;;5087361;28;20032;-67
2024/03/04 11:08:05;;;;;;;89.22;35.28;;;8.60;99.90;;;;;;5088915;28;20486;-68
2024/03/04 11:10:35;;;;;;;84.18;34.63;;;8.60;99.90;;;;;;5086969;28;20067;-68
2024/03/04 11:13:23;;;;;;;98.65;37.00;;;8.50;99.90;;;;;;5087121;28;20077;-68
2024/03/04 11:15:57;;;;;;;93.00;37.40;;;8.50;99.90;;;;;;5079495;28;20525;-68
2024/03/04 11:18:40;;;;;;;84.47;34.80;;;8.50;99.90;;;;;;5083664;28;20025;-68
2024/03/04 11:21:05;;;;;;;85.43;34.65;;;8.50;99.90;;;;;;5087254;28;20421;-67
2024/03/04 11:23:33;;;;;;;80.80;33.03;;;8.40;99.90;;;;;;5083706;28;20036;-68
2024/03/04 11:25:59;;;;;;;80.47;35.17;;;8.40;99.90;;;;;;5086310;28;20085;-67
2024/03/04 11:28:26;;;;;;;81.70;33.97;;;8.50;99.90;;;;;;5082975;28;20161;-67
2024/03/04 11:30:51;;;;;;;84.80;33.80;;;8.50;99.90;;;;;;5085623;28;20489;-68
2024/03/04 11:33:38;;;;;;;92.25;34.55;;;8.50;99.90;;;;;;5084494;28;20038;-67
2024/03/04 11:36:04;;;;;;;77.03;31.38;;;8.50;99.90;;;;;;5082814;28;20105;-67
2024/03/04 11:38:30;;;;;;;83.25;33.45;;;8.40;99.90;;;;;;5082144;28;20539;-68
2024/03/04 11:40:57;;;;;;;83.30;32.42;;;8.40;99.90;;;;;;5085696;28;20032;-67
2024/03/04 11:43:44;;;;;;;87.38;34.25;;;8.40;99.90;;;;;;5086578;28;20020;-67
2024/03/04 11:46:12;;;;;;;89.68;35.78;;;8.40;99.90;;;;;;5076231;28;20028;-69
2024/03/04 11:48:39;;;;;;;84.55;34.13;;;8.50;99.90;;;;;;5068595;28;20382;-69
2024/03/04 11:51:05;;;;;;;79.65;34.70;;;8.60;99.90;;;;;;5073960;28;20390;-69
2024/03/04 11:53:31;;;;;;;86.78;34.83;;;8.60;99.90;;;;;;5072916;28;20020;-69
2024/03/04 11:55:57;;;;;;;84.80;34.30;;;8.60;99.90;;;;;;5073647;28;20035;-69
2024/03/04 11:58:23;;;;;;;76.82;32.35;;;8.50;99.90;;;;;;5074515;28;20028;-68
2024/03/04 12:00:50;;;;;;;81.15;32.67;;;8.50;99.90;;;;;;5073713;28;20033;-69
2024/03/04 12:03:16;;;;;;;77.25;32.95;;;8.60;99.90;;;;;;5074707;28;20048;-68
2024/03/04 12:05:42;;;;;;;87.35;33.40;;;8.50;99.90;;;;;;5071063;28;20053;-68
2024/03/04 12:08:08;;;;;;;79.93;33.80;;;8.50;99.90;;;;;;5073847;28;20085;-68
2024/03/04 12:10:34;;;;;;;87.45;34.75;;;8.50;99.90;;;;;;5074983;28;20116;-68
2024/03/04 12:13:00;;;;;;;86.50;34.95;;;8.40;99.90;;;;;;5076061;28;20031;-69
2024/03/04 12:15:26;;;;;;;81.68;35.15;;;8.40;99.90;;;;;;5074220;28;20028;-69
2024/03/04 12:17:52;;;;;;;87.45;37.60;;;8.40;99.90;;;;;;5074202;28;20028;-68
2024/03/04 12:20:18;;;;;;;83.53;35.50;;;8.40;99.90;;;;;;5074100;28;20028;-68
2024/03/04 12:22:43;;;;;;;99.50;38.15;;;8.40;99.90;;;;;;5071957;28;20021;-68
2024/03/04 12:25:09;;;;;;;84.32;34.17;;;8.50;99.90;;;;;;5076743;28;20020;-68
2024/03/04 12:27:36;;;;;;;93.22;34.30;;;8.50;99.90;;;;;;5074780;28;20040;-69